sensor_id;sensor_type;location;lat;lon;timestamp;temperature;humidity
25951;DHT22;13748;52.240;6.002;2022-12-07T00:01:07;4.50;99.90
25951;DHT22;13748;52.240;6.002;2022-12-07T00:03:34;4.50;99.90
25951;DHT22;13748;52.240;6.002;2022-12-07T00:06:02;4.40;99.90
25951;DHT22;13748;52.240;6.002;2022-12-07T00:08:30;4.40;99.90
25951;DHT22;13748;52.240;6.002;2022-12-07T00:11:08;4.40;99.90
25951;DHT22;13748;52.240;6.002;2022-12-07T00:13:35;4.40;99.90
25951;DHT22;13748;52.240;6.002;2022-12-07T00:16:05;4.40;99.90
25951;DHT22;13748;52.240;6.002;2022-12-07T00:18:33;4.40;99.90
25951;DHT22;13748;52.240;6.002;2022-12-07T00:21:07;4.40;99.90
25951;DHT22;13748;52.240;6.002;2022-12-07T00:23:34;4.40;99.90
25951;DHT22;13748;52.240;6.002;2022-12-07T00:26:09;4.40;99.90
25951;DHT22;13748;52.240;6.002;2022-12-07T00:28:36;4.40;99.90
25951;DHT22;13748;52.240;6.002;2022-12-07T00:31:08;4.40;99.90
25951;DHT22;13748;52.240;6.002;2022-12-07T00:33:36;4.40;99.90
25951;DHT22;13748;52.240;6.002;2022-12-07T00:36:05;4.30;99.90
25951;DHT22;13748;52.240;6.002;2022-12-07T00:38:34;4.30;99.90
25951;DHT22;13748;52.240;6.002;2022-12-07T00:41:04;4.30;99.90
25951;DHT22;13748;52.240;6.002;2022-12-07T00:43:31;4.20;99.90
25951;DHT22;13748;52.240;6.002;2022-12-07T00:46:04;4.20;99.90
25951;DHT22;13748;52.240;6.002;2022-12-07T00:48:31;4.30;99.90
25951;DHT22;13748;52.240;6.002;2022-12-07T00:50:58;4.20;99.90
25951;DHT22;13748;52.240;6.002;2022-12-07T00:53:26;4.20;99.90
25951;DHT22;13748;52.240;6.002;2022-12-07T00:55:53;4.20;99.90
25951;DHT22;13748;52.240;6.002;2022-12-07T00:58:20;4.20;99.90
25951;DHT22;13748;52.240;6.002;2022-12-07T01:00:47;4.20;99.90
25951;DHT22;13748;52.240;6.002;2022-12-07T01:03:15;4.20;99.90
25951;DHT22;13748;52.240;6.002;2022-12-07T01:05:52;4.10;99.90
25951;DHT22;13748;52.240;6.002;2022-12-07T01:08:20;4.10;99.90
25951;DHT22;13748;52.240;6.002;2022-12-07T01:10:47;4.10;99.90
25951;DHT22;13748;52.240;6.002;2022-12-07T01:13:14;4.10;99.90
25951;DHT22;13748;52.240;6.002;2022-12-07T01:15:44;4.10;99.90
25951;DHT22;13748;52.240;6.002;2022-12-07T01:18:11;4.10;99.90
25951;DHT22;13748;52.240;6.002;2022-12-07T01:20:37;4.00;99.90
25951;DHT22;13748;52.240;6.002;2022-12-07T01:23:04;4.00;99.90
25951;DHT22;13748;52.240;6.002;2022-12-07T01:25:31;4.00;99.90
25951;DHT22;13748;52.240;6.002;2022-12-07T01:27:57;4.00;99.90
25951;DHT22;13748;52.240;6.002;2022-12-07T01:30:24;4.00;99.90
25951;DHT22;13748;52.240;6.002;2022-12-07T01:32:51;4.00;99.90
25951;DHT22;13748;52.240;6.002;2022-12-07T01:35:18;4.00;99.90
25951;DHT22;13748;52.240;6.002;2022-12-07T01:37:44;4.00;99.90
25951;DHT22;13748;52.240;6.002;2022-12-07T01:40:11;4.00;99.90
25951;DHT22;13748;52.240;6.002;2022-12-07T01:42:38;4.00;99.90
25951;DHT22;13748;52.240;6.002;2022-12-07T01:45:37;4.00;99.90
25951;DHT22;13748;52.240;6.002;2022-12-07T01:48:05;4.10;99.90
25951;DHT22;13748;52.240;6.002;2022-12-07T01:50:33;4.10;99.90
25951;DHT22;13748;52.240;6.002;2022-12-07T01:53:04;4.00;99.90
25951;DHT22;13748;52.240;6.002;2022-12-07T01:55:31;4.00;99.90
25951;DHT22;13748;52.240;6.002;2022-12-07T01:57:58;4.00;99.90
25951;DHT22;13748;52.240;6.002;2022-12-07T02:00:25;4.00;99.90
25951;DHT22;13748;52.240;6.002;2022-12-07T02:05:31;4.10;99.90
25951;DHT22;13748;52.240;6.002;2022-12-07T02:08:02;4.10;99.90
25951;DHT22;13748;52.240;6.002;2022-12-07T02:10:31;4.10;99.90
25951;DHT22;13748;52.240;6.002;2022-12-07T02:13:19;4.10;99.90
25951;DHT22;13748;52.240;6.002;2022-12-07T02:21:20;4.20;99.90
25951;DHT22;13748;52.240;6.002;2022-12-07T02:24:15;4.20;99.90
25951;DHT22;13748;52.240;6.002;2022-12-07T02:29:39;4.10;99.90
25951;DHT22;13748;52.240;6.002;2022-12-07T02:34:58;4.00;99.90
25951;DHT22;13748;52.240;6.002;2022-12-07T02:37:48;4.00;99.90
25951;DHT22;13748;52.240;6.002;2022-12-07T02:41:07;4.00;99.90
25951;DHT22;13748;52.240;6.002;2022-12-07T02:43:44;4.00;99.90
25951;DHT22;13748;52.240;6.002;2022-12-07T02:46:10;4.00;99.90
25951;DHT22;13748;52.240;6.002;2022-12-07T02:48:39;4.00;99.90
25951;DHT22;13748;52.240;6.002;2022-12-07T02:51:07;4.00;99.90
25951;DHT22;13748;52.240;6.002;2022-12-07T02:53:40;4.00;99.90
25951;DHT22;13748;52.240;6.002;2022-12-07T02:56:20;4.00;99.90
25951;DHT22;13748;52.240;6.002;2022-12-07T03:12:22;4.20;99.90
25951;DHT22;13748;52.240;6.002;2022-12-07T03:15:13;4.20;99.90
25951;DHT22;13748;52.240;6.002;2022-12-07T03:17:42;4.20;99.90
25951;DHT22;13748;52.240;6.002;2022-12-07T03:20:13;4.30;99.90
25951;DHT22;13748;52.240;6.002;2022-12-07T03:22:43;4.30;99.90
25951;DHT22;13748;52.240;6.002;2022-12-07T03:25:13;4.40;99.90
25951;DHT22;13748;52.240;6.002;2022-12-07T03:27:59;4.40;99.90
25951;DHT22;13748;52.240;6.002;2022-12-07T03:30:35;4.40;99.90
25951;DHT22;13748;52.240;6.002;2022-12-07T03:33:11;4.50;99.90
25951;DHT22;13748;52.240;6.002;2022-12-07T03:35:44;4.50;99.90
25951;DHT22;13748;52.240;6.002;2022-12-07T03:38:40;4.40;99.90
25951;DHT22;13748;52.240;6.002;2022-12-07T03:41:46;4.40;99.90
25951;DHT22;13748;52.240;6.002;2022-12-07T03:44:11;4.40;99.90
25951;DHT22;13748;52.240;6.002;2022-12-07T03:51:43;4.20;99.90
25951;DHT22;13748;52.240;6.002;2022-12-07T03:57:28;4.10;99.90
25951;DHT22;13748;52.240;6.002;2022-12-07T03:59:56;4.10;99.90
25951;DHT22;13748;52.240;6.002;2022-12-07T04:02:25;4.00;99.90
25951;DHT22;13748;52.240;6.002;2022-12-07T04:04:53;4.00;99.90
25951;DHT22;13748;52.240;6.002;2022-12-07T04:07:19;4.00;99.90
25951;DHT22;13748;52.240;6.002;2022-12-07T04:09:46;4.10;99.90
25951;DHT22;13748;52.240;6.002;2022-12-07T04:12:13;4.10;99.90
25951;DHT22;13748;52.240;6.002;2022-12-07T04:14:39;4.10;99.90
25951;DHT22;13748;52.240;6.002;2022-12-07T04:17:06;4.20;99.90
25951;DHT22;13748;52.240;6.002;2022-12-07T04:19:34;4.20;99.90
25951;DHT22;13748;52.240;6.002;2022-12-07T04:22:02;4.20;99.90
25951;DHT22;13748;52.240;6.002;2022-12-07T04:24:29;4.20;99.90
25951;DHT22;13748;52.240;6.002;2022-12-07T04:26:56;4.10;99.90
25951;DHT22;13748;52.240;6.002;2022-12-07T04:29:23;4.10;99.90
25951;DHT22;13748;52.240;6.002;2022-12-07T04:31:50;4.00;99.90
25951;DHT22;13748;52.240;6.002;2022-12-07T04:34:18;4.00;99.90
25951;DHT22;13748;52.240;6.002;2022-12-07T04:36:46;3.90;99.90
25951;DHT22;13748;52.240;6.002;2022-12-07T04:41:45;3.80;99.90
25951;DHT22;13748;52.240;6.002;2022-12-07T04:44:13;3.80;99.90
25951;DHT22;13748;52.240;6.002;2022-12-07T04:46:41;3.80;99.90
25951;DHT22;13748;52.240;6.002;2022-12-07T04:49:08;3.80;99.90
25951;DHT22;13748;52.240;6.002;2022-12-07T04:51:35;3.80;99.90
25951;DHT22;13748;52.240;6.002;2022-12-07T04:54:02;3.80;99.90
25951;DHT22;13748;52.240;6.002;2022-12-07T04:56:29;3.80;99.90
25951;DHT22;13748;52.240;6.002;2022-12-07T04:58:56;3.80;99.90
25951;DHT22;13748;52.240;6.002;2022-12-07T05:01:23;3.80;99.90
25951;DHT22;13748;52.240;6.002;2022-12-07T05:03:50;3.80;99.90
25951;DHT22;13748;52.240;6.002;2022-12-07T05:06:17;3.80;99.90
25951;DHT22;13748;52.240;6.002;2022-12-07T05:08:44;3.80;99.90
25951;DHT22;13748;52.240;6.002;2022-12-07T05:11:12;3.80;99.90
25951;DHT22;13748;52.240;6.002;2022-12-07T05:14:03;3.80;99.90
25951;DHT22;13748;52.240;6.002;2022-12-07T05:16:30;3.70;99.90
25951;DHT22;13748;52.240;6.002;2022-12-07T05:18:57;3.70;99.90
25951;DHT22;13748;52.240;6.002;2022-12-07T05:21:24;3.70;99.90
25951;DHT22;13748;52.240;6.002;2022-12-07T05:23:51;3.70;99.90
25951;DHT22;13748;52.240;6.002;2022-12-07T05:26:18;3.70;99.90
25951;DHT22;13748;52.240;6.002;2022-12-07T05:28:45;3.80;99.90
25951;DHT22;13748;52.240;6.002;2022-12-07T05:31:12;3.80;99.90
25951;DHT22;13748;52.240;6.002;2022-12-07T05:33:38;3.80;99.90
25951;DHT22;13748;52.240;6.002;2022-12-07T05:36:05;3.90;99.90
25951;DHT22;13748;52.240;6.002;2022-12-07T05:38:33;3.90;99.90
25951;DHT22;13748;52.240;6.002;2022-12-07T05:41:04;3.90;99.90
25951;DHT22;13748;52.240;6.002;2022-12-07T05:43:32;3.90;99.90
25951;DHT22;13748;52.240;6.002;2022-12-07T05:45:59;3.90;99.90
25951;DHT22;13748;52.240;6.002;2022-12-07T05:48:26;3.90;99.90
25951;DHT22;13748;52.240;6.002;2022-12-07T05:50:53;3.90;99.90
25951;DHT22;13748;52.240;6.002;2022-12-07T05:53:20;3.90;99.90
25951;DHT22;13748;52.240;6.002;2022-12-07T05:55:49;4.00;99.90
25951;DHT22;13748;52.240;6.002;2022-12-07T05:58:15;4.00;99.90
25951;DHT22;13748;52.240;6.002;2022-12-07T06:01:01;4.00;99.90
25951;DHT22;13748;52.240;6.002;2022-12-07T06:03:27;4.00;99.90
25951;DHT22;13748;52.240;6.002;2022-12-07T06:05:54;4.00;99.90
25951;DHT22;13748;52.240;6.002;2022-12-07T06:08:21;4.00;99.90
25951;DHT22;13748;52.240;6.002;2022-12-07T06:10:48;3.90;99.90
25951;DHT22;13748;52.240;6.002;2022-12-07T06:13:35;3.90;99.90
25951;DHT22;13748;52.240;6.002;2022-12-07T06:16:02;3.90;99.90
25951;DHT22;13748;52.240;6.002;2022-12-07T06:18:29;3.80;99.90
25951;DHT22;13748;52.240;6.002;2022-12-07T06:20:55;3.80;99.90
25951;DHT22;13748;52.240;6.002;2022-12-07T06:23:22;3.70;99.90
25951;DHT22;13748;52.240;6.002;2022-12-07T06:25:49;3.70;99.90
25951;DHT22;13748;52.240;6.002;2022-12-07T06:28:16;3.60;99.90
25951;DHT22;13748;52.240;6.002;2022-12-07T06:30:42;3.60;99.90
25951;DHT22;13748;52.240;6.002;2022-12-07T06:33:09;3.50;99.90
25951;DHT22;13748;52.240;6.002;2022-12-07T06:35:36;3.50;99.90
25951;DHT22;13748;52.240;6.002;2022-12-07T06:38:03;3.50;99.90
25951;DHT22;13748;52.240;6.002;2022-12-07T06:40:29;3.40;99.90
25951;DHT22;13748;52.240;6.002;2022-12-07T06:42:56;3.40;99.90
25951;DHT22;13748;52.240;6.002;2022-12-07T06:45:23;3.40;99.90
25951;DHT22;13748;52.240;6.002;2022-12-07T06:47:49;3.40;99.90
25951;DHT22;13748;52.240;6.002;2022-12-07T06:50:16;3.30;99.90
25951;DHT22;13748;52.240;6.002;2022-12-07T06:52:43;3.30;99.90
25951;DHT22;13748;52.240;6.002;2022-12-07T06:55:10;3.30;99.90
25951;DHT22;13748;52.240;6.002;2022-12-07T06:57:37;3.30;99.90
25951;DHT22;13748;52.240;6.002;2022-12-07T07:00:04;3.30;99.90
25951;DHT22;13748;52.240;6.002;2022-12-07T07:02:31;3.30;99.90
25951;DHT22;13748;52.240;6.002;2022-12-07T07:04:58;3.20;99.90
25951;DHT22;13748;52.240;6.002;2022-12-07T07:07:25;3.30;99.90
25951;DHT22;13748;52.240;6.002;2022-12-07T07:09:52;3.20;99.90
25951;DHT22;13748;52.240;6.002;2022-12-07T07:12:18;3.20;99.90
25951;DHT22;13748;52.240;6.002;2022-12-07T07:14:45;3.20;99.90
25951;DHT22;13748;52.240;6.002;2022-12-07T07:17:12;3.20;99.90
25951;DHT22;13748;52.240;6.002;2022-12-07T07:19:41;3.20;99.90
25951;DHT22;13748;52.240;6.002;2022-12-07T07:22:08;3.10;99.90
25951;DHT22;13748;52.240;6.002;2022-12-07T07:24:35;3.10;99.90
25951;DHT22;13748;52.240;6.002;2022-12-07T07:27:01;3.10;99.90
25951;DHT22;13748;52.240;6.002;2022-12-07T07:29:28;3.10;99.90
25951;DHT22;13748;52.240;6.002;2022-12-07T07:31:55;3.10;99.90
25951;DHT22;13748;52.240;6.002;2022-12-07T07:34:27;3.10;99.90
25951;DHT22;13748;52.240;6.002;2022-12-07T07:36:54;3.10;99.90
25951;DHT22;13748;52.240;6.002;2022-12-07T07:39:20;3.10;99.90
25951;DHT22;13748;52.240;6.002;2022-12-07T07:41:47;3.20;99.90
25951;DHT22;13748;52.240;6.002;2022-12-07T07:46:41;3.30;99.90
25951;DHT22;13748;52.240;6.002;2022-12-07T07:49:09;3.40;99.90
25951;DHT22;13748;52.240;6.002;2022-12-07T07:51:39;3.40;99.90
25951;DHT22;13748;52.240;6.002;2022-12-07T07:54:06;3.50;99.90
25951;DHT22;13748;52.240;6.002;2022-12-07T07:56:37;3.60;99.90
25951;DHT22;13748;52.240;6.002;2022-12-07T07:59:03;3.70;99.90
25951;DHT22;13748;52.240;6.002;2022-12-07T08:01:30;3.70;99.90
25951;DHT22;13748;52.240;6.002;2022-12-07T08:03:57;3.80;99.90
25951;DHT22;13748;52.240;6.002;2022-12-07T08:06:24;3.80;99.90
25951;DHT22;13748;52.240;6.002;2022-12-07T08:08:57;3.90;99.90
25951;DHT22;13748;52.240;6.002;2022-12-07T08:11:25;3.90;99.90
25951;DHT22;13748;52.240;6.002;2022-12-07T08:13:52;3.90;99.90
25951;DHT22;13748;52.240;6.002;2022-12-07T08:16:19;4.00;99.90
25951;DHT22;13748;52.240;6.002;2022-12-07T08:18:45;4.00;99.90
25951;DHT22;13748;52.240;6.002;2022-12-07T08:21:14;3.90;99.90
25951;DHT22;13748;52.240;6.002;2022-12-07T08:23:41;3.90;99.90
25951;DHT22;13748;52.240;6.002;2022-12-07T08:26:11;3.90;99.90
25951;DHT22;13748;52.240;6.002;2022-12-07T08:28:38;4.00;99.90
25951;DHT22;13748;52.240;6.002;2022-12-07T08:31:12;4.00;99.90
25951;DHT22;13748;52.240;6.002;2022-12-07T08:33:40;4.00;99.90
25951;DHT22;13748;52.240;6.002;2022-12-07T08:36:09;4.10;99.90
25951;DHT22;13748;52.240;6.002;2022-12-07T08:38:37;4.10;99.90
25951;DHT22;13748;52.240;6.002;2022-12-07T08:41:05;4.20;99.90
25951;DHT22;13748;52.240;6.002;2022-12-07T08:43:32;4.30;99.90
25951;DHT22;13748;52.240;6.002;2022-12-07T08:48:49;4.50;99.90
25951;DHT22;13748;52.240;6.002;2022-12-07T08:51:19;4.50;99.90
25951;DHT22;13748;52.240;6.002;2022-12-07T08:53:46;4.50;99.90
25951;DHT22;13748;52.240;6.002;2022-12-07T08:56:13;4.60;99.90
25951;DHT22;13748;52.240;6.002;2022-12-07T08:58:40;4.60;99.90
25951;DHT22;13748;52.240;6.002;2022-12-07T09:01:07;4.60;99.90
25951;DHT22;13748;52.240;6.002;2022-12-07T09:03:34;4.60;99.90
25951;DHT22;13748;52.240;6.002;2022-12-07T09:06:01;4.50;99.90
25951;DHT22;13748;52.240;6.002;2022-12-07T09:08:33;4.50;99.90
25951;DHT22;13748;52.240;6.002;2022-12-07T09:11:00;4.50;99.90
25951;DHT22;13748;52.240;6.002;2022-12-07T09:13:27;4.50;99.90
25951;DHT22;13748;52.240;6.002;2022-12-07T09:15:54;4.50;99.90
25951;DHT22;13748;52.240;6.002;2022-12-07T09:18:20;4.50;99.90
25951;DHT22;13748;52.240;6.002;2022-12-07T09:20:47;4.60;99.90
25951;DHT22;13748;52.240;6.002;2022-12-07T09:23:14;4.60;99.90
25951;DHT22;13748;52.240;6.002;2022-12-07T09:25:41;4.60;99.90
25951;DHT22;13748;52.240;6.002;2022-12-07T09:28:08;4.60;99.90
25951;DHT22;13748;52.240;6.002;2022-12-07T09:30:35;4.70;99.90
25951;DHT22;13748;52.240;6.002;2022-12-07T09:33:22;4.70;99.90
25951;DHT22;13748;52.240;6.002;2022-12-07T09:35:50;4.60;99.90
25951;DHT22;13748;52.240;6.002;2022-12-07T09:38:18;4.60;99.90
25951;DHT22;13748;52.240;6.002;2022-12-07T09:40:46;4.60;99.90
25951;DHT22;13748;52.240;6.002;2022-12-07T09:43:19;4.60;99.90
25951;DHT22;13748;52.240;6.002;2022-12-07T09:45:48;4.70;99.90
25951;DHT22;13748;52.240;6.002;2022-12-07T09:48:31;4.70;99.90
25951;DHT22;13748;52.240;6.002;2022-12-07T09:51:00;4.70;99.90
25951;DHT22;13748;52.240;6.002;2022-12-07T09:53:32;4.70;99.90
25951;DHT22;13748;52.240;6.002;2022-12-07T09:56:00;4.80;99.90
25951;DHT22;13748;52.240;6.002;2022-12-07T09:58:29;4.80;99.90
25951;DHT22;13748;52.240;6.002;2022-12-07T10:03:36;5.10;99.90
25951;DHT22;13748;52.240;6.002;2022-12-07T10:06:05;5.30;99.90
25951;DHT22;13748;52.240;6.002;2022-12-07T10:08:32;5.40;99.90
25951;DHT22;13748;52.240;6.002;2022-12-07T10:11:01;5.50;99.90
25951;DHT22;13748;52.240;6.002;2022-12-07T10:13:41;5.70;99.90
25951;DHT22;13748;52.240;6.002;2022-12-07T10:18:52;5.70;99.90
25951;DHT22;13748;52.240;6.002;2022-12-07T10:21:21;5.80;99.90
25951;DHT22;13748;52.240;6.002;2022-12-07T10:24:05;5.80;99.90
25951;DHT22;13748;52.240;6.002;2022-12-07T10:29:37;5.70;99.90
25951;DHT22;13748;52.240;6.002;2022-12-07T10:32:25;5.70;99.90
25951;DHT22;13748;52.240;6.002;2022-12-07T10:35:24;5.70;99.90
25951;DHT22;13748;52.240;6.002;2022-12-07T10:37:52;5.80;99.90
25951;DHT22;13748;52.240;6.002;2022-12-07T10:40:32;6.00;99.90
25951;DHT22;13748;52.240;6.002;2022-12-07T10:43:05;6.10;99.90
25951;DHT22;13748;52.240;6.002;2022-12-07T10:45:33;6.20;99.90
25951;DHT22;13748;52.240;6.002;2022-12-07T10:48:19;6.20;99.90
25951;DHT22;13748;52.240;6.002;2022-12-07T10:54:01;6.10;99.90
25951;DHT22;13748;52.240;6.002;2022-12-07T10:59:42;6.00;99.90
25951;DHT22;13748;52.240;6.002;2022-12-07T11:02:31;6.00;99.90
25951;DHT22;13748;52.240;6.002;2022-12-07T11:10:27;5.80;99.90
25951;DHT22;13748;52.240;6.002;2022-12-07T11:26:15;5.80;99.90
25951;DHT22;13748;52.240;6.002;2022-12-07T11:37:37;5.90;99.90
25951;DHT22;13748;52.240;6.002;2022-12-07T11:42:59;6.00;99.90
25951;DHT22;13748;52.240;6.002;2022-12-07T11:45:37;6.10;99.90
25951;DHT22;13748;52.240;6.002;2022-12-07T11:48:20;6.10;99.90
25951;DHT22;13748;52.240;6.002;2022-12-07T11:50:57;6.10;99.90
25951;DHT22;13748;52.240;6.002;2022-12-07T11:53:55;6.10;99.90
25951;DHT22;13748;52.240;6.002;2022-12-07T11:56:26;6.10;99.90
25951;DHT22;13748;52.240;6.002;2022-12-07T11:58:57;6.20;99.90
25951;DHT22;13748;52.240;6.002;2022-12-07T12:06:37;6.60;99.90
25951;DHT22;13748;52.240;6.002;2022-12-07T12:12:07;7.00;99.90
25951;DHT22;13748;52.240;6.002;2022-12-07T12:15:26;7.10;99.90
25951;DHT22;13748;52.240;6.002;2022-12-07T12:18:09;7.20;99.90
25951;DHT22;13748;52.240;6.002;2022-12-07T12:23:50;7.30;99.90
25951;DHT22;13748;52.240;6.002;2022-12-07T12:26:23;7.30;99.90
25951;DHT22;13748;52.240;6.002;2022-12-07T12:29:03;7.20;99.90
25951;DHT22;13748;52.240;6.002;2022-12-07T12:31:37;7.20;99.90
25951;DHT22;13748;52.240;6.002;2022-12-07T12:34:58;7.20;99.90
25951;DHT22;13748;52.240;6.002;2022-12-07T12:42:51;7.10;99.90
25951;DHT22;13748;52.240;6.002;2022-12-07T12:45:28;7.10;99.90
25951;DHT22;13748;52.240;6.002;2022-12-07T13:00:46;7.60;99.90
25951;DHT22;13748;52.240;6.002;2022-12-07T13:03:26;7.60;99.90
25951;DHT22;13748;52.240;6.002;2022-12-07T13:06:20;7.70;99.90
25951;DHT22;13748;52.240;6.002;2022-12-07T13:08:59;7.70;99.90
25951;DHT22;13748;52.240;6.002;2022-12-07T13:11:38;7.80;99.90
25951;DHT22;13748;52.240;6.002;2022-12-07T13:20:03;7.80;99.90
25951;DHT22;13748;52.240;6.002;2022-12-07T13:28:07;7.80;99.90
25951;DHT22;13748;52.240;6.002;2022-12-07T13:30:45;7.80;99.90
25951;DHT22;13748;52.240;6.002;2022-12-07T13:33:14;7.90;99.90
25951;DHT22;13748;52.240;6.002;2022-12-07T13:35:42;8.00;99.90
25951;DHT22;13748;52.240;6.002;2022-12-07T13:38:24;7.90;99.90
25951;DHT22;13748;52.240;6.002;2022-12-07T13:41:19;7.90;99.90
25951;DHT22;13748;52.240;6.002;2022-12-07T13:44:11;7.90;99.90
25951;DHT22;13748;52.240;6.002;2022-12-07T13:49:30;7.90;99.90
25951;DHT22;13748;52.240;6.002;2022-12-07T13:52:13;7.80;99.90
25951;DHT22;13748;52.240;6.002;2022-12-07T13:57:34;7.80;99.90
25951;DHT22;13748;52.240;6.002;2022-12-07T14:00:06;7.80;99.90
25951;DHT22;13748;52.240;6.002;2022-12-07T14:05:26;7.70;99.90
25951;DHT22;13748;52.240;6.002;2022-12-07T14:07:58;7.70;99.90
25951;DHT22;13748;52.240;6.002;2022-12-07T14:10:40;7.70;99.90
25951;DHT22;13748;52.240;6.002;2022-12-07T14:15:53;7.60;99.90
25951;DHT22;13748;52.240;6.002;2022-12-07T14:18:30;7.50;99.90
25951;DHT22;13748;52.240;6.002;2022-12-07T14:21:16;7.50;99.90
25951;DHT22;13748;52.240;6.002;2022-12-07T14:23:45;7.50;99.90
25951;DHT22;13748;52.240;6.002;2022-12-07T14:26:28;7.50;99.90
25951;DHT22;13748;52.240;6.002;2022-12-07T14:29:57;7.50;99.90
25951;DHT22;13748;52.240;6.002;2022-12-07T14:32:32;7.40;99.90
25951;DHT22;13748;52.240;6.002;2022-12-07T14:35:12;7.20;99.90
25951;DHT22;13748;52.240;6.002;2022-12-07T14:37:40;7.00;99.90
25951;DHT22;13748;52.240;6.002;2022-12-07T14:40:13;6.80;99.90
25951;DHT22;13748;52.240;6.002;2022-12-07T14:42:42;6.70;99.90
25951;DHT22;13748;52.240;6.002;2022-12-07T14:45:18;6.60;99.90
25951;DHT22;13748;52.240;6.002;2022-12-07T14:47:46;6.50;99.90
25951;DHT22;13748;52.240;6.002;2022-12-07T14:50:37;6.40;99.90
25951;DHT22;13748;52.240;6.002;2022-12-07T14:53:28;6.30;99.90
25951;DHT22;13748;52.240;6.002;2022-12-07T14:55:56;6.20;99.90
25951;DHT22;13748;52.240;6.002;2022-12-07T14:58:22;6.20;99.90
25951;DHT22;13748;52.240;6.002;2022-12-07T15:00:49;6.10;99.90
25951;DHT22;13748;52.240;6.002;2022-12-07T15:03:16;6.00;99.90
25951;DHT22;13748;52.240;6.002;2022-12-07T15:05:42;6.00;99.90
25951;DHT22;13748;52.240;6.002;2022-12-07T15:08:12;6.00;99.90
25951;DHT22;13748;52.240;6.002;2022-12-07T15:10:39;5.90;99.90
25951;DHT22;13748;52.240;6.002;2022-12-07T15:13:07;5.80;99.90
25951;DHT22;13748;52.240;6.002;2022-12-07T15:15:53;5.70;99.90
25951;DHT22;13748;52.240;6.002;2022-12-07T15:18:21;5.70;99.90
25951;DHT22;13748;52.240;6.002;2022-12-07T15:20:48;5.70;99.90
25951;DHT22;13748;52.240;6.002;2022-12-07T15:23:15;5.70;99.90
25951;DHT22;13748;52.240;6.002;2022-12-07T15:25:47;5.70;99.90
25951;DHT22;13748;52.240;6.002;2022-12-07T15:28:15;5.60;99.90
25951;DHT22;13748;52.240;6.002;2022-12-07T15:30:43;5.70;99.90
25951;DHT22;13748;52.240;6.002;2022-12-07T15:33:11;5.60;99.90
25951;DHT22;13748;52.240;6.002;2022-12-07T15:35:42;5.60;99.90
25951;DHT22;13748;52.240;6.002;2022-12-07T15:38:09;5.70;99.90
25951;DHT22;13748;52.240;6.002;2022-12-07T15:40:36;5.70;99.90
25951;DHT22;13748;52.240;6.002;2022-12-07T15:43:03;5.70;99.90
25951;DHT22;13748;52.240;6.002;2022-12-07T15:45:30;5.70;99.90
25951;DHT22;13748;52.240;6.002;2022-12-07T15:47:57;5.60;99.90
25951;DHT22;13748;52.240;6.002;2022-12-07T15:50:44;5.60;99.90
25951;DHT22;13748;52.240;6.002;2022-12-07T15:53:11;5.60;99.90
25951;DHT22;13748;52.240;6.002;2022-12-07T15:55:41;5.60;99.90
25951;DHT22;13748;52.240;6.002;2022-12-07T15:58:07;5.60;99.90
25951;DHT22;13748;52.240;6.002;2022-12-07T16:00:34;5.60;99.90
25951;DHT22;13748;52.240;6.002;2022-12-07T16:03:01;5.70;99.90
25951;DHT22;13748;52.240;6.002;2022-12-07T16:05:28;5.70;99.90
25951;DHT22;13748;52.240;6.002;2022-12-07T16:07:54;5.60;99.90
25951;DHT22;13748;52.240;6.002;2022-12-07T16:10:21;5.60;99.90
25951;DHT22;13748;52.240;6.002;2022-12-07T16:12:48;5.60;99.90
25951;DHT22;13748;52.240;6.002;2022-12-07T16:15:15;5.50;99.90
25951;DHT22;13748;52.240;6.002;2022-12-07T16:17:48;5.50;99.90
25951;DHT22;13748;52.240;6.002;2022-12-07T16:20:15;5.50;99.90
25951;DHT22;13748;52.240;6.002;2022-12-07T16:22:42;5.40;99.90
25951;DHT22;13748;52.240;6.002;2022-12-07T16:25:09;5.40;99.90
25951;DHT22;13748;52.240;6.002;2022-12-07T16:27:36;5.30;99.90
25951;DHT22;13748;52.240;6.002;2022-12-07T16:30:03;5.30;99.90
25951;DHT22;13748;52.240;6.002;2022-12-07T16:32:30;5.30;99.90
25951;DHT22;13748;52.240;6.002;2022-12-07T16:34:57;5.30;99.90
25951;DHT22;13748;52.240;6.002;2022-12-07T16:37:23;5.30;99.90
25951;DHT22;13748;52.240;6.002;2022-12-07T16:39:50;5.30;99.90
25951;DHT22;13748;52.240;6.002;2022-12-07T16:42:17;5.30;99.90
25951;DHT22;13748;52.240;6.002;2022-12-07T16:44:43;5.30;99.90
25951;DHT22;13748;52.240;6.002;2022-12-07T16:47:10;5.30;99.90
25951;DHT22;13748;52.240;6.002;2022-12-07T16:49:37;5.30;99.90
25951;DHT22;13748;52.240;6.002;2022-12-07T16:52:04;5.30;99.90
25951;DHT22;13748;52.240;6.002;2022-12-07T16:54:48;5.50;99.90
25951;DHT22;13748;52.240;6.002;2022-12-07T16:57:16;5.50;99.90
25951;DHT22;13748;52.240;6.002;2022-12-07T16:59:48;5.40;99.90
25951;DHT22;13748;52.240;6.002;2022-12-07T17:02:15;5.30;99.90
25951;DHT22;13748;52.240;6.002;2022-12-07T17:04:42;5.30;99.90
25951;DHT22;13748;52.240;6.002;2022-12-07T17:07:09;5.20;99.90
25951;DHT22;13748;52.240;6.002;2022-12-07T17:09:36;5.20;99.90
25951;DHT22;13748;52.240;6.002;2022-12-07T17:12:03;5.30;99.90
25951;DHT22;13748;52.240;6.002;2022-12-07T17:14:32;5.20;99.90
25951;DHT22;13748;52.240;6.002;2022-12-07T17:17:17;5.10;99.90
25951;DHT22;13748;52.240;6.002;2022-12-07T17:19:44;5.10;99.90
25951;DHT22;13748;52.240;6.002;2022-12-07T17:22:11;5.10;99.90
25951;DHT22;13748;52.240;6.002;2022-12-07T17:24:39;5.10;99.90
25951;DHT22;13748;52.240;6.002;2022-12-07T17:27:05;5.10;99.90
25951;DHT22;13748;52.240;6.002;2022-12-07T17:29:32;5.10;99.90
25951;DHT22;13748;52.240;6.002;2022-12-07T17:31:59;5.10;99.90
25951;DHT22;13748;52.240;6.002;2022-12-07T17:34:26;5.00;99.90
25951;DHT22;13748;52.240;6.002;2022-12-07T17:36:53;5.00;99.90
25951;DHT22;13748;52.240;6.002;2022-12-07T17:39:21;5.10;99.90
25951;DHT22;13748;52.240;6.002;2022-12-07T17:41:48;5.00;99.90
25951;DHT22;13748;52.240;6.002;2022-12-07T17:44:33;5.10;99.90
25951;DHT22;13748;52.240;6.002;2022-12-07T17:47:00;5.00;99.90
25951;DHT22;13748;52.240;6.002;2022-12-07T17:49:29;5.00;99.90
25951;DHT22;13748;52.240;6.002;2022-12-07T17:51:56;5.00;99.90
25951;DHT22;13748;52.240;6.002;2022-12-07T17:54:42;5.00;99.90
25951;DHT22;13748;52.240;6.002;2022-12-07T17:57:09;5.00;99.90
25951;DHT22;13748;52.240;6.002;2022-12-07T17:59:36;5.00;99.90
25951;DHT22;13748;52.240;6.002;2022-12-07T18:02:03;5.00;99.90
25951;DHT22;13748;52.240;6.002;2022-12-07T18:04:30;5.00;99.90
25951;DHT22;13748;52.240;6.002;2022-12-07T18:06:57;5.00;99.90
25951;DHT22;13748;52.240;6.002;2022-12-07T18:09:24;5.00;99.90
25951;DHT22;13748;52.240;6.002;2022-12-07T18:11:50;5.00;99.90
25951;DHT22;13748;52.240;6.002;2022-12-07T18:14:17;4.90;99.90
25951;DHT22;13748;52.240;6.002;2022-12-07T18:16:44;5.00;99.90
25951;DHT22;13748;52.240;6.002;2022-12-07T18:19:12;4.90;99.90
25951;DHT22;13748;52.240;6.002;2022-12-07T18:21:40;4.90;99.90
25951;DHT22;13748;52.240;6.002;2022-12-07T18:24:09;4.90;99.90
25951;DHT22;13748;52.240;6.002;2022-12-07T18:26:35;4.90;99.90
25951;DHT22;13748;52.240;6.002;2022-12-07T18:29:04;4.90;99.90